createdAt,value
2018-11-02T00:01:25.192Z,10.50
2018-11-02T00:03:53.229Z,10.40
2018-11-02T00:06:21.092Z,10.30
2018-11-02T00:08:48.761Z,10.30
2018-11-02T00:11:16.759Z,10.30
2018-11-02T00:13:44.443Z,10.50
2018-11-02T00:16:12.165Z,10.40
2018-11-02T00:18:39.936Z,10.50
2018-11-02T00:21:07.641Z,10.20
2018-11-02T00:23:35.472Z,10.30
2018-11-02T00:26:03.241Z,10.30
2018-11-02T00:28:31.044Z,10.20
2018-11-02T00:30:58.837Z,10.20
2018-11-02T00:33:26.593Z,10.20
2018-11-02T00:35:54.324Z,10.30
2018-11-02T00:38:22.077Z,10.10
2018-11-02T00:40:49.826Z,10.00
2018-11-02T00:43:17.581Z,10.00
2018-11-02T00:45:45.317Z,10.00
2018-11-02T00:48:13.733Z,10.00
2018-11-02T00:50:42.117Z,9.80
2018-11-02T00:53:10.084Z,9.80
2018-11-02T00:55:37.834Z,9.80
2018-11-02T00:58:05.849Z,9.70
2018-11-02T01:00:33.598Z,9.80
2018-11-02T01:03:01.349Z,9.90
2018-11-02T01:05:29.335Z,9.80
2018-11-02T01:07:57.433Z,9.60
2018-11-02T01:10:25.201Z,9.40
2018-11-02T01:12:52.917Z,9.20
2018-11-02T01:15:20.655Z,9.20
2018-11-02T01:17:48.406Z,9.20
2018-11-02T01:20:16.141Z,9.10
2018-11-02T01:22:43.845Z,9.40
2018-11-02T01:25:11.674Z,9.50
2018-11-02T01:27:39.393Z,9.40
2018-11-02T01:30:07.175Z,9.40
2018-11-02T01:32:34.929Z,9.40
2018-11-02T01:35:02.664Z,9.90
2018-11-02T01:37:30.469Z,9.90
2018-11-02T01:39:59.181Z,9.80
2018-11-02T01:42:26.954Z,9.60
2018-11-02T01:44:54.652Z,9.60
2018-11-02T01:47:22.437Z,9.70
2018-11-02T01:49:50.137Z,9.70
2018-11-02T01:52:17.911Z,9.90
2018-11-02T01:54:45.658Z,9.90
2018-11-02T01:57:13.426Z,9.90
2018-11-02T01:59:41.149Z,9.90
2018-11-02T02:02:08.861Z,9.80
2018-11-02T02:04:36.597Z,9.70
2018-11-02T02:07:04.633Z,9.60
2018-11-02T02:09:32.393Z,9.50
2018-11-02T02:12:00.110Z,9.50
2018-11-02T02:14:27.846Z,9.30
2018-11-02T02:16:55.633Z,9.10
2018-11-02T02:19:23.391Z,9.00
2018-11-02T02:21:51.194Z,9.10
2018-11-02T02:24:18.918Z,8.90
2018-11-02T02:26:47.657Z,8.80
2018-11-02T02:29:15.418Z,8.70
2018-11-02T02:31:43.181Z,8.60
2018-11-02T02:34:11.001Z,8.40
2018-11-02T02:36:38.755Z,8.30
2018-11-02T02:39:07.123Z,8.10
2018-11-02T02:41:35.350Z,8.10
2018-11-02T02:44:03.090Z,8.20
2018-11-02T02:46:30.805Z,8.00
2018-11-02T02:48:58.550Z,8.00
2018-11-02T02:51:26.273Z,8.10
2018-11-02T02:53:54.027Z,7.90
2018-11-02T02:56:21.797Z,7.90
2018-11-02T02:58:49.541Z,8.40
2018-11-02T03:01:17.301Z,8.30
2018-11-02T03:03:45.034Z,8.20
2018-11-02T03:06:12.820Z,8.10
2018-11-02T03:08:40.645Z,8.00
2018-11-02T03:11:08.677Z,7.90
2018-11-02T03:13:36.181Z,7.80
2018-11-02T03:16:03.929Z,7.90
2018-11-02T03:18:31.692Z,8.00
2018-11-02T03:20:59.452Z,8.00
2018-11-02T03:23:27.145Z,7.90
2018-11-02T03:25:54.954Z,7.90
2018-11-02T03:28:22.729Z,7.90
2018-11-02T03:30:50.489Z,7.60
2018-11-02T03:33:18.231Z,7.40
2018-11-02T03:35:45.989Z,7.60
2018-11-02T03:38:13.703Z,8.70
2018-11-02T03:40:41.437Z,8.90
2018-11-02T03:43:09.150Z,8.30
2018-11-02T03:45:36.952Z,8.30
2018-11-02T03:48:04.682Z,8.70
2018-11-02T03:50:33.300Z,8.70
2018-11-02T03:53:01.111Z,8.70
2018-11-02T03:55:28.874Z,9.40
2018-11-02T03:57:57.042Z,9.40
2018-11-02T04:00:25.428Z,9.30
2018-11-02T04:02:53.150Z,9.10
2018-11-02T04:05:20.890Z,9.00
2018-11-02T04:07:48.589Z,9.10
2018-11-02T04:10:16.352Z,8.70
2018-11-02T04:12:44.061Z,8.60
2018-11-02T04:15:11.870Z,8.30
2018-11-02T04:17:39.705Z,8.00
2018-11-02T04:20:08.109Z,7.90
2018-11-02T04:22:35.828Z,7.80
2018-11-02T04:25:04.474Z,7.70
2018-11-02T04:27:32.217Z,7.50
2018-11-02T04:30:00.020Z,7.40
2018-11-02T04:32:28.127Z,7.30
2018-11-02T04:34:56.027Z,7.20
2018-11-02T04:37:23.791Z,7.00
2018-11-02T04:39:51.588Z,6.90
2018-11-02T04:42:19.338Z,6.80
2018-11-02T04:44:47.122Z,6.60
2018-11-02T04:47:14.882Z,6.60
2018-11-02T04:49:42.695Z,6.60
2018-11-02T04:52:10.454Z,6.70
2018-11-02T04:54:38.839Z,6.70
2018-11-02T04:57:06.646Z,6.60
2018-11-02T04:59:34.386Z,6.40
2018-11-02T05:02:02.185Z,6.30
2018-11-02T05:04:29.978Z,6.30
2018-11-02T05:06:57.772Z,6.10
2018-11-02T05:09:25.639Z,6.10
2018-11-02T05:11:53.890Z,6.10
2018-11-02T05:14:22.085Z,6.10
2018-11-02T05:16:50.063Z,6.10
2018-11-02T05:19:17.916Z,6.10
2018-11-02T05:21:46.319Z,6.00
2018-11-02T05:24:14.066Z,5.90
2018-11-02T05:26:41.983Z,5.90
2018-11-02T05:29:09.734Z,5.90
2018-11-02T05:31:37.552Z,5.80
2018-11-02T05:34:06.005Z,5.80
2018-11-02T05:36:33.841Z,5.80
2018-11-02T05:39:01.691Z,5.80
2018-11-02T05:41:29.459Z,5.80
2018-11-02T05:43:57.258Z,5.80
2018-11-02T05:46:25.006Z,5.80
2018-11-02T05:48:53.258Z,5.70
2018-11-02T05:51:22.230Z,5.60
2018-11-02T05:53:50.052Z,5.60
2018-11-02T05:56:17.851Z,5.50
2018-11-02T05:58:45.659Z,5.50
2018-11-02T06:01:13.427Z,5.40
2018-11-02T06:03:41.280Z,5.40
2018-11-02T06:06:09.076Z,5.30
2018-11-02T06:08:36.863Z,5.30
2018-11-02T06:11:04.879Z,5.20
2018-11-02T06:13:32.854Z,5.20
2018-11-02T06:16:00.669Z,5.10
2018-11-02T06:18:28.959Z,5.00
2018-11-02T06:20:56.778Z,5.00
2018-11-02T06:23:24.596Z,4.90
2018-11-02T06:25:52.967Z,4.90
2018-11-02T06:28:20.787Z,4.80
2018-11-02T06:30:48.551Z,4.80
2018-11-02T06:33:16.363Z,4.80
2018-11-02T06:35:44.129Z,4.90
2018-11-02T06:38:11.939Z,4.90
2018-11-02T06:40:40.746Z,4.80
2018-11-02T06:43:10.763Z,4.80
2018-11-02T06:45:38.529Z,4.80
2018-11-02T06:48:06.342Z,4.80
2018-11-02T06:50:34.142Z,4.80
2018-11-02T06:53:02.282Z,4.70
2018-11-02T06:55:30.599Z,4.70
2018-11-02T06:57:58.350Z,4.60
2018-11-02T07:00:26.232Z,4.50
2018-11-02T07:02:56.081Z,4.60
2018-11-02T07:05:25.365Z,4.60
2018-11-02T07:07:54.247Z,4.70
2018-11-02T07:10:23.170Z,4.80
2018-11-02T07:12:51.747Z,4.90
2018-11-02T07:15:19.499Z,5.00
2018-11-02T07:17:48.428Z,5.90
2018-11-02T07:20:17.066Z,6.50
2018-11-02T07:22:44.879Z,8.00
2018-11-02T07:25:12.748Z,10.70
2018-11-02T07:27:40.514Z,13.30
2018-11-02T07:30:09.018Z,14.00
2018-11-02T07:32:37.003Z,13.60
2018-11-02T07:35:06.153Z,13.70
2018-11-02T07:37:33.927Z,13.20
2018-11-02T07:40:01.725Z,14.00
2018-11-02T07:42:29.491Z,12.50
2018-11-02T07:44:57.279Z,11.10
2018-11-02T07:47:25.159Z,11.40
2018-11-02T07:49:52.981Z,12.20
2018-11-02T07:52:20.766Z,13.30
2018-11-02T07:54:48.630Z,13.90
2018-11-02T07:57:16.406Z,14.40
2018-11-02T07:59:44.238Z,16.20
2018-11-02T08:02:12.092Z,17.80
2018-11-02T08:04:39.886Z,18.40
2018-11-02T08:07:08.206Z,18.80
2018-11-02T08:09:36.039Z,19.20
2018-11-02T08:12:03.831Z,19.00
2018-11-02T08:14:32.493Z,19.50
2018-11-02T08:17:00.286Z,19.40
2018-11-02T08:19:28.054Z,20.00
2018-11-02T08:21:55.812Z,19.80
2018-11-02T08:24:23.585Z,20.10
2018-11-02T08:26:51.431Z,17.40
2018-11-02T08:29:19.221Z,15.70
2018-11-02T08:31:46.971Z,15.10
2018-11-02T08:34:14.786Z,14.60
2018-11-02T08:36:42.603Z,14.50
2018-11-02T08:39:11.871Z,14.30
2018-11-02T08:41:39.663Z,13.90
2018-11-02T08:44:07.743Z,13.00
2018-11-02T08:46:35.661Z,13.60
2018-11-02T08:49:03.402Z,16.10
2018-11-02T08:51:31.318Z,19.10
2018-11-02T08:53:59.081Z,20.80
2018-11-02T08:56:26.824Z,21.90
2018-11-02T08:58:54.657Z,22.30
2018-11-02T09:01:28.364Z,22.20
2018-11-02T09:03:56.858Z,21.00
2018-11-02T09:06:24.746Z,21.60
2018-11-02T09:08:53.044Z,22.10
2018-11-02T09:11:20.832Z,22.10
2018-11-02T09:13:52.045Z,23.00
2018-11-02T09:16:19.798Z,22.60
2018-11-02T09:18:49.586Z,24.30
2018-11-02T09:21:17.334Z,25.20
2018-11-02T09:23:45.577Z,26.20
2018-11-02T09:26:13.574Z,26.00
2018-11-02T09:28:41.334Z,25.70
2018-11-02T09:31:09.074Z,21.00
2018-11-02T09:33:36.894Z,18.80
2018-11-02T09:36:05.108Z,17.70
2018-11-02T09:38:32.907Z,16.60
2018-11-02T09:41:00.687Z,19.80
2018-11-02T09:43:28.970Z,20.00
2018-11-02T09:45:56.754Z,19.40
2018-11-02T09:48:24.553Z,20.50
2018-11-02T09:50:52.335Z,23.40
2018-11-02T09:53:20.115Z,23.60
2018-11-02T09:55:47.875Z,20.70
2018-11-02T09:58:15.669Z,19.40
2018-11-02T10:00:43.414Z,17.50
2018-11-02T10:03:11.213Z,16.30
2018-11-02T10:05:38.998Z,15.80
2018-11-02T10:08:06.838Z,15.70
2018-11-02T10:10:34.619Z,15.30
2018-11-02T10:13:02.439Z,15.20
2018-11-02T10:15:30.243Z,14.90
2018-11-02T10:17:58.086Z,14.50
2018-11-02T10:20:25.840Z,14.70
2018-11-02T10:22:53.645Z,14.70
2018-11-02T10:25:21.450Z,14.80
2018-11-02T10:27:49.303Z,15.00
2018-11-02T10:30:17.108Z,14.70
2018-11-02T10:32:46.751Z,14.00
2018-11-02T10:35:14.710Z,13.40
2018-11-02T10:37:42.565Z,13.60
2018-11-02T10:40:12.254Z,14.30
2018-11-02T10:42:40.904Z,13.90
2018-11-02T10:45:08.747Z,13.80
2018-11-02T10:47:36.582Z,13.50
2018-11-02T10:50:05.124Z,13.10
2018-11-02T10:52:32.987Z,13.00
2018-11-02T10:55:00.739Z,13.20
2018-11-02T10:57:28.543Z,13.30
2018-11-02T10:59:56.315Z,13.00
2018-11-02T11:02:28.370Z,12.90
2018-11-02T11:04:57.747Z,12.70
2018-11-02T11:07:25.557Z,12.50
2018-11-02T11:09:53.374Z,12.40
2018-11-02T11:12:21.318Z,12.30
2018-11-02T11:14:48.966Z,12.40
2018-11-02T11:17:16.767Z,12.60
2018-11-02T11:19:44.562Z,12.80
2018-11-02T11:22:12.358Z,12.70
2018-11-02T11:24:40.871Z,12.60
2018-11-02T11:27:08.710Z,12.70
2018-11-02T11:29:36.623Z,12.80
2018-11-02T11:32:04.741Z,12.90
2018-11-02T11:34:32.532Z,13.10
2018-11-02T11:37:00.375Z,13.10
2018-11-02T11:39:28.213Z,13.10
2018-11-02T11:41:55.937Z,13.00
2018-11-02T11:44:23.768Z,13.00
2018-11-02T11:46:51.661Z,13.50
2018-11-02T11:49:19.694Z,13.60
2018-11-02T11:51:47.331Z,13.80
2018-11-02T11:54:15.191Z,14.30
2018-11-02T11:56:42.902Z,14.00
2018-11-02T11:59:10.738Z,14.10
2018-11-02T12:01:38.538Z,14.20
2018-11-02T12:04:06.845Z,14.00
2018-11-02T12:06:34.644Z,14.00
2018-11-02T12:09:03.104Z,13.80
2018-11-02T12:11:33.002Z,14.00
2018-11-02T12:14:01.263Z,14.40
2018-11-02T12:16:29.223Z,14.50
2018-11-02T12:18:56.998Z,14.20
2018-11-02T12:21:25.582Z,14.20
2018-11-02T12:23:53.764Z,13.90
2018-11-02T12:26:22.025Z,13.70
2018-11-02T12:28:51.409Z,13.70
2018-11-02T12:31:20.477Z,13.70
2018-11-02T12:33:48.661Z,14.10
2018-11-02T12:36:17.780Z,14.00
2018-11-02T12:38:46.294Z,14.20
2018-11-02T12:41:14.785Z,14.20
2018-11-02T12:43:44.417Z,13.90
2018-11-02T12:46:13.590Z,13.80
2018-11-02T12:48:41.736Z,13.30
2018-11-02T12:51:09.794Z,13.60
2018-11-02T12:53:39.307Z,13.80
2018-11-02T12:56:08.601Z,13.90
2018-11-02T12:58:37.776Z,13.80
2018-11-02T13:01:07.306Z,13.70
2018-11-02T13:03:36.453Z,13.90
2018-11-02T13:06:04.711Z,13.70
2018-11-02T13:08:33.287Z,13.60
2018-11-02T13:11:02.210Z,13.70
2018-11-02T13:13:30.990Z,13.90
2018-11-02T13:15:59.547Z,13.90
2018-11-02T13:18:29.016Z,14.00
2018-11-02T13:20:57.404Z,14.00
2018-11-02T13:23:26.330Z,14.10
2018-11-02T13:25:55.111Z,14.10
2018-11-02T13:28:22.953Z,14.10
2018-11-02T13:30:52.575Z,13.90
2018-11-02T13:33:23.196Z,13.70
2018-11-02T13:35:52.360Z,13.70
2018-11-02T13:38:21.153Z,13.80
2018-11-02T13:40:51.349Z,13.80
2018-11-02T13:43:38.695Z,13.60
2018-11-02T13:46:07.047Z,13.60
2018-11-02T13:48:36.242Z,13.50
2018-11-02T13:51:05.966Z,13.40
2018-11-02T13:53:34.677Z,13.40
2018-11-02T13:56:03.267Z,13.30
2018-11-02T13:58:32.137Z,13.30
2018-11-02T14:01:00.041Z,13.30
2018-11-02T14:03:28.926Z,13.30
2018-11-02T14:05:59.497Z,13.20
2018-11-02T14:08:27.400Z,13.30
2018-11-02T14:10:56.740Z,13.30
2018-11-02T14:13:25.438Z,13.20
2018-11-02T14:15:54.354Z,13.10
2018-11-02T14:18:23.168Z,13.10
2018-11-02T14:20:51.675Z,12.90
2018-11-02T14:23:19.742Z,12.90
2018-11-02T14:25:47.567Z,13.00
2018-11-02T14:28:15.515Z,12.90
2018-11-02T14:30:43.279Z,12.80
2018-11-02T14:33:11.070Z,12.70
2018-11-02T14:35:38.842Z,12.80
2018-11-02T14:38:06.649Z,12.80
2018-11-02T14:40:35.175Z,12.80
2018-11-02T14:43:03.018Z,12.70
2018-11-02T14:45:30.774Z,12.70
2018-11-02T14:47:58.564Z,12.70
2018-11-02T14:50:26.366Z,12.70
2018-11-02T14:52:56.830Z,12.70
2018-11-02T14:55:24.733Z,12.70
2018-11-02T14:57:52.531Z,12.60
2018-11-02T15:00:20.313Z,12.60
2018-11-02T15:02:48.082Z,12.60
2018-11-02T15:05:16.998Z,12.60
2018-11-02T15:07:46.410Z,12.60
2018-11-02T15:10:14.253Z,12.50
2018-11-02T15:12:42.019Z,12.50
2018-11-02T15:15:10.171Z,12.50
2018-11-02T15:17:38.114Z,12.40
2018-11-02T15:20:07.367Z,12.30
2018-11-02T15:22:35.147Z,12.40
2018-11-02T15:25:02.959Z,12.40
2018-11-02T15:27:30.811Z,12.40
2018-11-02T15:29:58.823Z,12.30
2018-11-02T15:32:26.571Z,12.30
2018-11-02T15:34:54.390Z,12.20
2018-11-02T15:37:24.458Z,12.30
2018-11-02T15:39:54.229Z,12.20
2018-11-02T15:42:22.112Z,12.20
2018-11-02T15:44:50.002Z,12.20
2018-11-02T15:47:17.702Z,12.20
2018-11-02T15:49:45.511Z,12.20
2018-11-02T15:52:13.323Z,12.10
2018-11-02T15:54:41.149Z,12.10
2018-11-02T15:57:08.976Z,12.00
2018-11-02T15:59:36.962Z,12.00
2018-11-02T16:02:05.384Z,11.90
2018-11-02T16:04:33.211Z,11.80
2018-11-02T16:09:38.754Z,11.70
2018-11-02T16:12:06.552Z,11.70
2018-11-02T16:14:35.121Z,11.60
2018-11-02T16:17:02.901Z,11.50
2018-11-02T16:19:30.665Z,11.50
2018-11-02T16:21:58.484Z,11.50
2018-11-02T16:24:26.248Z,11.50
2018-11-02T16:26:54.094Z,11.50
2018-11-02T16:29:21.909Z,11.20
2018-11-02T16:31:50.115Z,11.20
2018-11-02T16:34:18.451Z,11.20
2018-11-02T16:36:46.183Z,11.20
2018-11-02T16:39:13.930Z,11.10
2018-11-02T16:41:42.089Z,11.10
2018-11-02T16:44:10.295Z,11.10
2018-11-02T16:46:39.052Z,11.10
2018-11-02T16:49:06.817Z,11.10
2018-11-02T16:51:34.598Z,11.10
2018-11-02T16:54:02.380Z,11.00
2018-11-02T16:56:30.265Z,11.00
2018-11-02T16:58:58.000Z,11.00
2018-11-02T17:01:25.941Z,11.00
2018-11-02T17:03:53.718Z,11.00
2018-11-02T17:06:21.505Z,10.90
2018-11-02T17:08:49.318Z,10.90
2018-11-02T17:11:17.681Z,10.80
2018-11-02T17:13:46.923Z,10.70
2018-11-02T17:16:16.172Z,10.70
2018-11-02T17:18:45.121Z,10.70
2018-11-02T17:21:14.619Z,10.60
2018-11-02T17:23:44.050Z,10.60
2018-11-02T17:26:12.381Z,10.60
2018-11-02T17:28:43.008Z,10.60
2018-11-02T17:31:11.821Z,10.60
2018-11-02T17:33:42.066Z,10.60
2018-11-02T17:36:11.981Z,10.60
2018-11-02T17:38:39.910Z,10.60
2018-11-02T17:41:09.235Z,10.60
2018-11-02T17:43:38.221Z,10.70
2018-11-02T17:46:06.570Z,10.70
2018-11-02T17:48:36.657Z,10.70
2018-11-02T17:51:06.176Z,10.70
2018-11-02T17:53:35.449Z,10.70
2018-11-02T17:56:05.022Z,10.70
2018-11-02T17:58:35.363Z,10.70
2018-11-02T18:01:04.753Z,10.80
2018-11-02T18:03:34.234Z,10.80
2018-11-02T18:06:04.360Z,10.80
2018-11-02T18:08:33.745Z,10.80
2018-11-02T18:11:03.060Z,10.80
2018-11-02T18:13:32.717Z,10.90
2018-11-02T18:16:02.983Z,10.90
2018-11-02T18:18:32.996Z,10.80
2018-11-02T18:21:02.508Z,10.90
2018-11-02T18:23:32.759Z,10.90
2018-11-02T18:26:03.157Z,10.90
2018-11-02T18:28:33.123Z,10.90
2018-11-02T18:31:02.020Z,10.90
2018-11-02T18:33:31.596Z,10.90
2018-11-02T18:36:01.552Z,10.90
2018-11-02T18:38:30.902Z,10.90
2018-11-02T18:40:59.204Z,10.90
2018-11-02T18:43:27.836Z,10.90
2018-11-02T18:45:55.611Z,10.90
2018-11-02T18:48:24.927Z,10.90
2018-11-02T18:50:53.583Z,10.80
2018-11-02T18:53:22.546Z,10.80
2018-11-02T18:55:51.569Z,10.70
2018-11-02T18:58:20.558Z,10.70
2018-11-02T19:00:49.758Z,10.60
2018-11-02T19:03:17.611Z,10.60
2018-11-02T19:05:46.541Z,10.60
2018-11-02T19:08:15.603Z,10.60
2018-11-02T19:10:44.067Z,10.50
2018-11-02T19:13:13.101Z,10.50
2018-11-02T19:15:40.937Z,10.40
2018-11-02T19:18:10.450Z,10.30
2018-11-02T19:20:39.026Z,10.20
2018-11-02T19:23:06.879Z,10.20
2018-11-02T19:25:35.930Z,10.20
2018-11-02T19:28:04.406Z,10.10
2018-11-02T19:30:33.251Z,10.10
2018-11-02T19:33:02.686Z,10.00
2018-11-02T19:35:32.313Z,9.90
2018-11-02T19:38:02.245Z,9.90
2018-11-02T19:40:31.618Z,9.80
2018-11-02T19:42:59.364Z,9.80
2018-11-02T19:45:28.291Z,9.70
2018-11-02T19:48:03.589Z,9.60
2018-11-02T19:50:32.303Z,9.60
2018-11-02T19:53:01.801Z,9.60
2018-11-02T19:55:31.065Z,9.50
2018-11-02T19:58:00.231Z,9.50
2018-11-02T20:00:30.868Z,9.50
2018-11-02T20:02:59.952Z,9.50
2018-11-02T20:05:27.790Z,9.40
2018-11-02T20:07:55.677Z,9.50
2018-11-02T20:10:23.536Z,9.50
2018-11-02T20:12:51.299Z,9.60
2018-11-02T20:15:19.855Z,9.60
2018-11-02T20:17:48.762Z,9.60
2018-11-02T20:20:18.444Z,9.90
2018-11-02T20:22:47.416Z,9.90
2018-11-02T20:25:17.632Z,10.00
2018-11-02T20:27:45.738Z,10.00
2018-11-02T20:30:15.933Z,9.90
2018-11-02T20:32:44.288Z,9.90
2018-11-02T20:35:12.691Z,9.90
2018-11-02T20:37:42.307Z,9.90
2018-11-02T20:40:13.920Z,9.80
2018-11-02T20:42:43.446Z,9.80
2018-11-02T20:45:12.217Z,9.80
2018-11-02T20:47:46.024Z,9.80
2018-11-02T20:50:15.322Z,9.80
2018-11-02T20:52:43.183Z,9.80
2018-11-02T20:55:12.880Z,9.80
2018-11-02T20:57:42.734Z,9.80
2018-11-02T21:00:15.596Z,9.80
2018-11-02T21:02:44.705Z,9.80
2018-11-02T21:05:14.879Z,9.80
2018-11-02T21:07:44.053Z,9.80
2018-11-02T21:10:14.404Z,9.80
2018-11-02T21:12:42.219Z,9.80
2018-11-02T21:15:20.949Z,9.80
2018-11-02T21:17:49.285Z,9.70
2018-11-02T21:20:19.820Z,9.80
2018-11-02T21:22:49.096Z,9.70
2018-11-02T21:25:18.186Z,9.70
2018-11-02T21:27:48.138Z,9.70
2018-11-02T21:30:18.157Z,9.70
2018-11-02T21:32:47.110Z,9.70
2018-11-02T21:35:15.753Z,9.70
2018-11-02T21:37:44.591Z,9.70
2018-11-02T21:40:17.508Z,9.60
2018-11-02T21:42:46.464Z,9.60
2018-11-02T21:45:16.614Z,9.60
2018-11-02T21:47:47.286Z,9.60
2018-11-02T21:50:15.554Z,9.60
2018-11-02T21:52:44.310Z,9.60
2018-11-02T21:55:13.898Z,9.60
2018-11-02T21:57:41.706Z,9.50
2018-11-02T22:00:11.182Z,9.60
2018-11-02T22:02:40.552Z,9.60
2018-11-02T22:05:10.777Z,9.50
2018-11-02T22:07:39.753Z,9.50
2018-11-02T22:10:09.694Z,9.50
2018-11-02T22:12:39.453Z,9.50
2018-11-02T22:15:09.191Z,9.50
2018-11-02T22:17:37.067Z,9.50
2018-11-02T22:20:07.089Z,9.40
2018-11-02T22:22:34.906Z,9.40
2018-11-02T22:25:02.874Z,9.40
2018-11-02T22:27:30.650Z,9.40
2018-11-02T22:29:58.421Z,9.40
2018-11-02T22:32:26.179Z,9.40
2018-11-02T22:34:53.977Z,9.40
2018-11-02T22:37:21.796Z,9.40
2018-11-02T22:39:49.603Z,9.40
2018-11-02T22:42:17.374Z,9.40
2018-11-02T22:44:45.211Z,9.30
2018-11-02T22:47:12.950Z,9.30
2018-11-02T22:49:40.770Z,9.30
2018-11-02T22:52:08.519Z,9.20
2018-11-02T22:54:36.310Z,9.20
2018-11-02T22:57:04.124Z,9.10
2018-11-02T22:59:31.924Z,9.10
2018-11-02T23:01:59.722Z,9.10
2018-11-02T23:04:27.474Z,9.00
2018-11-02T23:06:55.279Z,9.00
2018-11-02T23:09:23.038Z,8.90
2018-11-02T23:11:50.926Z,8.90
2018-11-02T23:14:18.690Z,8.80
2018-11-02T23:16:46.479Z,8.80
2018-11-02T23:19:14.401Z,8.70
2018-11-02T23:21:42.131Z,8.70
2018-11-02T23:24:09.934Z,8.60
2018-11-02T23:26:38.488Z,8.60
2018-11-02T23:29:07.007Z,8.60
2018-11-02T23:31:35.134Z,8.60
2018-11-02T23:34:03.235Z,8.50
2018-11-02T23:36:31.042Z,8.50
2018-11-02T23:38:58.824Z,8.40
2018-11-02T23:41:26.604Z,8.40
2018-11-02T23:43:54.459Z,8.40
2018-11-02T23:46:22.215Z,8.40
2018-11-02T23:48:49.986Z,8.50
2018-11-02T23:51:17.790Z,8.50
2018-11-02T23:53:45.579Z,8.50
2018-11-02T23:56:13.729Z,8.60
2018-11-02T23:58:41.494Z,8.60
